Time;durP1;ratioP1;P1;durP2;ratioP2;P2;SDS_P1;SDS_P2;PMS_P1;PMS_P2;Temp;Humidity;BMP_temperature;BMP_pressure;BME280_temperature;BME280_humidity;BME280_pressure;Samples;Min_cycle;Max_cycle;Signal;HPM_P1;HPM_P2
2021/12/12 00:00:15;;;;;;;21.35;10.52;;;;;;;5.68;100.00;101932.94;10559363;28;20030;-74
2021/12/12 00:05:16;;;;;;;22.92;11.23;;;;;;;5.72;100.00;101924.47;10542880;28;20063;-78
2021/12/12 00:10:20;;;;;;;26.10;12.15;;;;;;;5.67;100.00;101913.28;10543631;28;20048;-76
2021/12/12 00:15:24;;;;;;;29.13;9.90;;;;;;;5.66;100.00;101908.91;10542071;28;20040;-77
2021/12/12 00:20:25;;;;;;;18.30;10.73;;;;;;;5.60;100.00;101906.78;10541880;28;20077;-78
2021/12/12 00:25:32;;;;;;;25.05;11.77;;;;;;;5.58;100.00;101898.88;10541069;28;20123;-78
2021/12/12 00:30:32;;;;;;;17.70;9.63;;;;;;;5.60;100.00;101885.28;10540691;28;20032;-77
2021/12/12 00:35:33;;;;;;;13.15;8.57;;;;;;;5.59;100.00;101878.22;10541523;28;20040;-77
2021/12/12 00:40:36;;;;;;;21.90;10.25;;;;;;;5.64;100.00;101881.31;10542580;28;20031;-78
2021/12/12 00:45:36;;;;;;;23.73;11.32;;;;;;;5.60;100.00;101878.06;10540978;28;20059;-77
2021/12/12 00:50:39;;;;;;;18.15;10.15;;;;;;;5.64;100.00;101877.78;10540782;28;20038;-76
2021/12/12 00:55:41;;;;;;;22.08;10.65;;;;;;;5.63;100.00;101876.94;10540466;28;20035;-77
2021/12/12 01:00:48;;;;;;;17.88;8.77;;;;;;;5.58;100.00;101871.13;10541730;28;20031;-78
2021/12/12 01:05:49;;;;;;;21.85;9.35;;;;;;;5.59;100.00;101864.81;10546291;28;20028;-77
2021/12/12 01:10:52;;;;;;;24.17;7.25;;;;;;;5.65;100.00;101860.66;10545758;28;20056;-77
2021/12/12 01:16:01;;;;;;;12.35;8.82;;;;;;;5.62;100.00;101859.16;10541493;28;20048;-77
2021/12/12 01:21:13;;;;;;;30.42;10.45;;;;;;;5.61;100.00;101860.13;10541619;28;20036;-76
2021/12/12 01:26:14;;;;;;;12.77;7.80;;;;;;;5.63;100.00;101860.81;10541733;28;20024;-77
2021/12/12 01:31:16;;;;;;;15.15;9.43;;;;;;;5.58;100.00;101858.59;10539530;28;20464;-77
2021/12/12 01:36:25;;;;;;;19.23;9.10;;;;;;;5.60;100.00;101867.31;10539332;28;20030;-76
2021/12/12 01:41:28;;;;;;;27.20;10.90;;;;;;;5.54;100.00;101870.56;10547735;28;20032;-76
2021/12/12 01:46:33;;;;;;;24.05;9.50;;;;;;;5.60;100.00;101861.94;10540874;28;20020;-76
2021/12/12 01:51:33;;;;;;;23.80;9.13;;;;;;;5.57;100.00;101872.97;10540855;28;20028;-76
2021/12/12 01:56:41;;;;;;;22.92;10.43;;;;;;;5.52;100.00;101855.59;10540011;28;20126;-75
2021/12/12 02:01:50;;;;;;;14.70;9.45;;;;;;;5.55;100.00;101860.69;10544981;28;20099;-75
2021/12/12 02:06:51;;;;;;;9.52;7.88;;;;;;;5.48;100.00;101854.19;10548087;28;20073;-76
2021/12/12 02:11:53;;;;;;;11.60;8.30;;;;;;;5.51;100.00;101861.94;10547644;28;20364;-75
2021/12/12 02:16:57;;;;;;;13.68;8.38;;;;;;;5.65;100.00;101863.38;10545720;28;20024;-76
2021/12/12 02:37:40;;;;;;;19.60;15.32;;;;;;;5.78;100.00;101843.28;10545019;28;20039;-76
2021/12/12 02:42:40;;;;;;;21.08;14.77;;;;;;;5.83;100.00;101845.53;10544560;28;20032;-75
2021/12/12 02:47:43;;;;;;;19.30;15.68;;;;;;;5.86;100.00;101823.75;10544801;28;20031;-76
2021/12/12 02:52:48;;;;;;;31.42;19.35;;;;;;;5.88;100.00;101837.06;10545035;28;20032;-75
2021/12/12 02:57:48;;;;;;;38.10;21.17;;;;;;;5.92;100.00;101843.84;10544532;28;20517;-75
2021/12/12 03:02:49;;;;;;;29.27;22.02;;;;;;;5.91;100.00;101829.56;10545319;28;20035;-75
2021/12/12 03:07:50;;;;;;;33.72;19.67;;;;;;;6.00;100.00;101833.25;10545359;28;20502;-76
2021/12/12 03:12:50;;;;;;;32.95;17.73;;;;;;;6.04;100.00;101845.41;10544450;28;20043;-76
2021/12/12 03:17:52;;;;;;;26.35;18.45;;;;;;;6.08;100.00;101822.59;10545926;28;20406;-76
2021/12/12 03:23:06;;;;;;;28.83;17.10;;;;;;;6.13;100.00;101830.25;10529059;28;20032;-76
2021/12/12 03:28:08;;;;;;;23.77;17.92;;;;;;;6.15;100.00;101825.56;10549970;28;20059;-76
2021/12/12 03:33:08;;;;;;;23.67;15.10;;;;;;;6.19;100.00;101809.00;10544141;28;20470;-75
2021/12/12 03:38:09;;;;;;;20.77;17.40;;;;;;;6.33;100.00;101817.59;10543875;28;20032;-76
2021/12/12 03:43:09;;;;;;;30.88;16.30;;;;;;;6.40;100.00;101827.59;10544513;28;20040;-76
2021/12/12 03:48:23;;;;;;;23.15;19.67;;;;;;;6.42;100.00;101835.53;10545943;28;20059;-76
2021/12/12 03:53:25;;;;;;;22.52;18.98;;;;;;;6.45;100.00;101836.09;10544707;28;20024;-77
2021/12/12 03:58:25;;;;;;;22.17;19.92;;;;;;;6.49;100.00;101856.31;10547496;28;20177;-75
2021/12/12 04:03:26;;;;;;;26.73;18.67;;;;;;;6.52;100.00;101850.63;10564880;28;20089;-76
2021/12/12 04:08:34;;;;;;;34.22;21.17;;;;;;;6.53;100.00;101851.47;10541278;28;20086;-76
2021/12/12 04:13:41;;;;;;;28.05;19.90;;;;;;;6.54;100.00;101850.50;10542340;28;20054;-76
2021/12/12 04:18:41;;;;;;;19.40;17.15;;;;;;;6.53;100.00;101851.47;10542320;28;20043;-76
2021/12/12 04:23:42;;;;;;;27.48;20.73;;;;;;;6.58;100.00;101845.66;10558899;28;20086;-75
2021/12/12 04:28:42;;;;;;;26.80;21.35;;;;;;;6.53;100.00;101859.53;10542697;28;20532;-76
2021/12/12 04:33:43;;;;;;;33.13;21.38;;;;;;;6.56;100.00;101851.19;10540180;28;20074;-74
2021/12/12 04:38:43;;;;;;;40.92;25.58;;;;;;;6.60;100.00;101839.13;10543196;28;20115;-75
2021/12/12 04:43:44;;;;;;;45.08;26.27;;;;;;;6.66;100.00;101846.59;10540502;28;20043;-75
2021/12/12 04:54:44;;;;;;;42.20;29.90;;;;;;;6.69;100.00;101849.00;10525828;28;20051;-76
2021/12/12 04:59:47;;;;;;;44.92;27.55;;;;;;;6.78;100.00;101857.19;10504741;28;20040;-75
2021/12/12 05:04:52;;;;;;;35.35;26.33;;;;;;;6.80;100.00;101865.97;10507235;28;20032;-74
2021/12/12 05:09:57;;;;;;;41.22;29.17;;;;;;;6.83;100.00;101857.56;10523819;28;20052;-75
2021/12/12 05:15:00;;;;;;;38.55;27.70;;;;;;;6.83;100.00;101853.06;10541075;28;20089;-75
2021/12/12 05:20:02;;;;;;;42.45;31.25;;;;;;;6.82;100.00;101864.81;10524687;28;20032;-76
2021/12/12 05:25:06;;;;;;;44.20;29.75;;;;;;;6.84;100.00;101878.13;10540496;28;20036;-75
2021/12/12 05:30:18;;;;;;;56.28;31.90;;;;;;;6.89;100.00;101876.69;10538125;28;20494;-76
2021/12/12 05:35:27;;;;;;;35.33;28.98;;;;;;;6.92;100.00;101875.53;10542928;28;20032;-75
2021/12/12 05:40:29;;;;;;;45.95;28.67;;;;;;;6.97;100.00;101881.31;10531641;28;20025;-75
2021/12/12 05:45:31;;;;;;;54.30;30.80;;;;;;;6.98;100.00;101883.84;10548162;28;20031;-75
2021/12/12 05:50:31;;;;;;;43.67;29.17;;;;;;;7.05;100.00;101897.59;10549878;28;20043;-75
2021/12/12 05:55:33;;;;;;;49.53;30.95;;;;;;;7.10;100.00;101889.88;10547390;28;20122;-75
2021/12/12 06:00:41;;;;;;;52.95;31.20;;;;;;;7.16;100.00;101897.38;10547496;28;20036;-75
2021/12/12 06:05:41;;;;;;;50.95;31.42;;;;;;;7.17;100.00;101901.75;10546620;28;20028;-76
2021/12/12 06:10:42;;;;;;;48.83;31.67;;;;;;;7.17;100.00;101899.06;10546848;28;20102;-75
2021/12/12 06:15:45;;;;;;;45.88;33.42;;;;;;;7.22;100.00;101904.00;10545774;28;20131;-75
2021/12/12 06:20:45;;;;;;;60.78;33.17;;;;;;;7.25;100.00;101910.94;10550134;28;20036;-75
2021/12/12 06:25:46;;;;;;;38.65;29.95;;;;;;;7.28;100.00;101913.34;10546822;28;20383;-76
2021/12/12 06:30:47;;;;;;;43.88;30.30;;;;;;;7.32;100.00;101901.25;10547449;28;20043;-74
2021/12/12 06:35:47;;;;;;;59.90;30.50;;;;;;;7.29;100.00;101915.03;10545497;28;20456;-75
2021/12/12 06:40:48;;;;;;;38.22;26.40;;;;;;;7.35;100.00;101909.03;10527795;28;20523;-75
2021/12/12 06:45:48;;;;;;;65.95;32.90;;;;;;;7.40;100.00;101907.59;10545174;28;20119;-76
2021/12/12 06:50:50;;;;;;;46.63;30.30;;;;;;;7.44;100.00;101908.97;10561323;28;20059;-76
2021/12/12 06:55:52;;;;;;;46.03;31.17;;;;;;;7.50;100.00;101921.00;10545814;28;20470;-76
2021/12/12 07:00:56;;;;;;;52.90;30.90;;;;;;;7.54;100.00;101908.91;10544482;28;20097;-76
2021/12/12 07:05:56;;;;;;;57.63;31.27;;;;;;;7.62;100.00;101921.59;10543941;28;20096;-76
2021/12/12 07:10:57;;;;;;;53.00;32.53;;;;;;;7.64;100.00;101931.22;10543165;28;20044;-77
2021/12/12 07:15:58;;;;;;;58.97;33.15;;;;;;;7.72;100.00;101940.41;10546025;28;20028;-76
2021/12/12 07:21:03;;;;;;;44.72;32.10;;;;;;;7.72;100.00;101943.94;10544293;28;20030;-77
2021/12/12 07:26:05;;;;;;;70.78;33.90;;;;;;;7.75;100.00;101945.47;10544140;28;20055;-77
2021/12/12 07:31:10;;;;;;;75.50;36.70;;;;;;;7.79;100.00;101945.03;10544597;28;20032;-77
2021/12/12 07:36:11;;;;;;;67.40;32.60;;;;;;;7.82;100.00;101949.28;10544411;28;20371;-77
2021/12/12 07:41:12;;;;;;;49.28;30.80;;;;;;;7.86;100.00;101956.06;10542893;28;20035;-77
2021/12/12 07:46:12;;;;;;;78.97;33.47;;;;;;;7.86;100.00;101953.34;10543521;28;20039;-78
2021/12/12 07:51:13;;;;;;;60.97;34.15;;;;;;;7.90;100.00;101968.22;10542644;28;20107;-78
2021/12/12 07:56:13;;;;;;;57.55;33.15;;;;;;;7.95;100.00;101968.63;10543826;28;20032;-78
2021/12/12 08:01:14;;;;;;;77.55;35.17;;;;;;;8.00;100.00;101966.28;10535905;28;20524;-79
2021/12/12 08:06:15;;;;;;;61.97;33.03;;;;;;;8.04;100.00;101970.41;10554391;28;20032;-78
2021/12/12 08:11:21;;;;;;;67.75;31.63;;;;;;;8.08;100.00;101977.16;10542369;28;20576;-79
2021/12/12 08:16:21;;;;;;;48.70;33.57;;;;;;;8.13;100.00;101999.13;10540637;28;20036;-78
2021/12/12 08:21:22;;;;;;;51.92;28.67;;;;;;;8.14;100.00;101997.28;10525223;28;20339;-79
2021/12/12 08:26:22;;;;;;;43.58;26.23;;;;;;;8.20;100.00;102001.19;10541064;28;20119;-77
2021/12/12 08:31:23;;;;;;;64.53;29.52;;;;;;;8.23;100.00;102001.75;10540832;28;20028;-76
2021/12/12 08:36:23;;;;;;;35.75;21.98;;;;;;;8.28;100.00;102014.78;10542475;28;20082;-76
2021/12/12 08:41:23;;;;;;;21.88;18.35;;;;;;;8.32;100.00;102010.75;10544273;28;20426;-74
2021/12/12 08:46:24;;;;;;;41.15;22.58;;;;;;;8.41;100.00;102017.13;10541152;28;20036;-75
2021/12/12 08:51:34;;;;;;;34.20;20.08;;;;;;;8.45;100.00;102027.44;10541394;28;20036;-76
2021/12/12 08:56:43;;;;;;;20.25;16.75;;;;;;;8.54;100.00;102034.59;10542973;28;20032;-78
2021/12/12 09:01:43;;;;;;;31.58;18.08;;;;;;;8.64;100.00;102037.19;10526360;28;20035;-79
2021/12/12 09:07:20;;;;;;;20.98;16.50;;;;;;;8.73;100.00;102046.22;10539369;28;20043;-74
2021/12/12 09:12:24;;;;;;;21.47;18.13;;;;;;;8.82;100.00;102040.72;10538430;28;20395;-77
2021/12/12 09:17:29;;;;;;;22.50;15.30;;;;;;;8.83;100.00;102046.97;10523122;28;20107;-78
2021/12/12 09:22:56;;;;;;;19.80;13.63;;;;;;;8.89;100.00;102050.91;10540542;28;20416;-78
2021/12/12 09:28:22;;;;;;;20.77;15.50;;;;;;;8.89;100.00;102062.53;10541211;28;20032;-77
2021/12/12 09:33:27;;;;;;;19.63;13.25;;;;;;;8.96;100.00;102063.59;10541195;28;20460;-77
2021/12/12 09:38:30;;;;;;;17.67;13.50;;;;;;;8.90;100.00;102077.72;10541161;28;20035;-76
2021/12/12 09:43:56;;;;;;;18.73;13.60;;;;;;;8.93;100.00;102073.88;10540051;28;20081;-78
2021/12/12 09:54:24;;;;;;;14.07;11.30;;;;;;;9.00;100.00;102080.38;10539061;28;20036;-77
2021/12/12 09:59:46;;;;;;;16.52;11.38;;;;;;;9.05;100.00;102062.66;10539363;28;20460;-76
2021/12/12 10:05:00;;;;;;;20.35;12.65;;;;;;;9.13;100.00;102069.13;10539703;28;20032;-78
2021/12/12 10:10:05;;;;;;;21.75;13.07;;;;;;;9.19;100.00;102063.94;10538757;28;20064;-76
2021/12/12 10:15:09;;;;;;;14.30;12.02;;;;;;;9.20;100.00;102073.72;10539020;28;20032;-77
2021/12/12 10:20:15;;;;;;;21.48;12.70;;;;;;;9.23;100.00;102080.69;10522816;28;20433;-75
2021/12/12 10:25:18;;;;;;;19.60;13.60;;;;;;;9.27;100.00;102076.63;10549434;28;20032;-75
2021/12/12 10:30:43;;;;;;;16.63;11.75;;;;;;;9.28;100.00;102081.91;10547294;28;20055;-75
2021/12/12 10:35:50;;;;;;;20.23;12.32;;;;;;;9.36;100.00;102078.38;10546707;28;20491;-80
2021/12/12 10:41:04;;;;;;;14.32;11.20;;;;;;;9.44;100.00;102088.38;10546383;28;20172;-78
2021/12/12 10:46:11;;;;;;;14.77;9.88;;;;;;;9.48;100.00;102077.09;10547717;28;20036;-78
2021/12/12 10:51:15;;;;;;;13.20;9.38;;;;;;;9.52;100.00;102085.72;10547579;28;20519;-76
2021/12/12 10:56:34;;;;;;;11.13;9.30;;;;;;;9.58;100.00;102082.38;10548130;28;20063;-78
2021/12/12 11:01:38;;;;;;;13.90;8.50;;;;;;;9.60;100.00;102093.03;10547560;28;20529;-78
2021/12/12 11:06:40;;;;;;;12.43;9.27;;;;;;;9.68;100.00;102093.06;10543474;28;20042;-79
2021/12/12 11:11:46;;;;;;;10.18;7.95;;;;;;;9.73;100.00;102094.28;10544886;28;20055;-79
2021/12/12 11:16:50;;;;;;;9.43;7.63;;;;;;;9.72;100.00;102097.97;10544972;28;20458;-78
2021/12/12 11:22:01;;;;;;;8.10;7.30;;;;;;;9.73;100.00;102093.41;10542402;28;20032;-77
2021/12/12 11:27:16;;;;;;;6.95;6.25;;;;;;;9.85;100.00;102096.69;10542746;28;20392;-79
2021/12/12 11:32:23;;;;;;;6.15;5.55;;;;;;;9.91;100.00;102096.03;10543406;28;20035;-75
2021/12/12 11:37:42;;;;;;;;;;;;;;;9.91;100.00;102102.28;10543588;28;20039;-78
2021/12/12 11:43:04;;;;;;;9.13;6.68;;;;;;;9.94;100.00;102110.09;10545122;28;19912;-78
2021/12/12 11:48:32;;;;;;;6.75;5.65;;;;;;;9.97;100.00;102109.75;10544610;28;20352;-78
2021/12/12 11:53:55;;;;;;;6.68;6.03;;;;;;;10.01;100.00;102112.97;10541895;28;20431;-78
2021/12/12 11:59:04;;;;;;;7.30;6.60;;;;;;;10.07;100.00;102122.31;10542209;28;20036;-76
2021/12/12 12:04:23;;;;;;;21.80;8.50;;;;;;;10.15;100.00;102114.22;10544003;28;20035;-75
2021/12/12 12:09:27;;;;;;;12.25;7.25;;;;;;;10.22;100.00;102121.50;10542839;28;20052;-77
2021/12/12 12:14:34;;;;;;;16.02;10.35;;;;;;;10.35;100.00;102120.22;10542581;28;20039;-76
2021/12/12 12:19:53;;;;;;;;;;;;;;;10.42;100.00;102122.09;10542826;28;20065;-77
2021/12/12 12:25:00;;;;;;;14.27;11.05;;;;;;;10.47;100.00;102129.72;10541444;28;20351;-77
2021/12/12 12:30:30;;;;;;;19.75;13.05;;;;;;;10.51;100.00;102124.81;10542452;28;20031;-77
2021/12/12 12:35:49;;;;;;;15.63;13.05;;;;;;;10.52;100.00;102131.91;10542746;28;20368;-79
2021/12/12 12:41:27;;;;;;;23.38;11.43;;;;;;;10.58;100.00;102131.25;10542566;28;20035;-79
2021/12/12 12:47:24;;;;;;;10.75;9.35;;;;;;;10.56;100.00;102133.28;10542788;28;20036;-77
2021/12/12 12:52:58;;;;;;;14.50;9.88;;;;;;;10.49;100.00;102133.09;10542156;28;20032;-83
2021/12/12 12:58:25;;;;;;;21.83;9.00;;;;;;;10.52;100.00;102137.34;10540374;28;20405;-78
2021/12/12 13:03:36;;;;;;;12.98;8.18;;;;;;;10.53;100.00;102139.03;10524845;28;20119;-75
2021/12/12 13:08:49;;;;;;;21.77;8.35;;;;;;;10.61;100.00;102155.28;10540031;28;20052;-75
2021/12/12 13:13:57;;;;;;;25.75;7.97;;;;;;;10.62;100.00;102146.16;10541380;28;20076;-76
2021/12/12 13:19:35;;;;;;;12.30;6.43;;;;;;;10.68;100.00;102153.59;10540895;28;20459;-75
2021/12/12 13:24:40;;;;;;;12.65;7.38;;;;;;;10.75;100.00;102157.31;10515524;28;20404;-76
2021/12/12 13:29:53;;;;;;;8.80;4.57;;;;;;;10.80;100.00;102160.41;10541024;28;20036;-76
2021/12/12 13:35:04;;;;;;;10.65;5.82;;;;;;;10.81;100.00;102159.38;10540540;28;20031;-76
2021/12/12 13:40:24;;;;;;;16.13;4.57;;;;;;;10.87;100.00;102169.53;10540972;28;20383;-76
2021/12/12 13:45:26;;;;;;;28.08;5.75;;;;;;;10.86;100.00;102167.84;10539856;28;20062;-75
2021/12/12 13:50:30;;;;;;;4.95;4.50;;;;;;;10.81;100.00;102164.78;10538720;28;20020;-75
2021/12/12 13:55:33;;;;;;;14.18;5.22;;;;;;;10.81;100.00;102177.50;10540563;28;20028;-76
2021/12/12 14:00:43;;;;;;;13.32;6.05;;;;;;;10.80;100.00;102182.06;10547020;28;20040;-76
2021/12/12 14:05:45;;;;;;;16.90;7.45;;;;;;;10.85;100.00;102177.00;10563511;28;20032;-77
2021/12/12 14:11:07;;;;;;;25.45;8.77;;;;;;;10.81;100.00;102172.91;10545827;28;20411;-77
2021/12/12 14:16:35;;;;;;;19.52;6.85;;;;;;;10.76;100.00;102178.00;10547155;28;20349;-76
2021/12/12 14:21:35;;;;;;;16.45;6.72;;;;;;;10.76;100.00;102185.31;10548213;28;20028;-77
2021/12/12 14:26:38;;;;;;;12.65;6.95;;;;;;;10.73;100.00;102182.94;10528782;28;20378;-75
2021/12/12 14:31:44;;;;;;;11.57;6.38;;;;;;;10.78;100.00;102181.38;10546316;28;20036;-75
2021/12/12 14:36:46;;;;;;;15.25;6.65;;;;;;;10.79;100.00;102180.38;10546824;28;20042;-75
2021/12/12 14:41:56;;;;;;;13.60;5.75;;;;;;;10.82;100.00;102190.91;10544737;28;20036;-75
2021/12/12 14:47:22;;;;;;;24.20;5.65;;;;;;;10.89;100.00;102205.47;10546722;28;20036;-74
2021/12/12 14:52:30;;;;;;;10.52;6.70;;;;;;;10.89;100.00;102205.47;10545219;28;20050;-76
2021/12/12 14:57:33;;;;;;;15.95;5.53;;;;;;;10.91;100.00;102217.00;10547936;28;20032;-75
2021/12/12 15:02:37;;;;;;;19.40;5.70;;;;;;;10.89;100.00;102207.31;10532387;28;20043;-76
2021/12/12 15:07:41;;;;;;;12.70;6.10;;;;;;;10.88;100.00;102208.31;10545990;28;20039;-74
2021/12/12 15:12:44;;;;;;;12.82;6.57;;;;;;;10.89;100.00;102216.31;10545177;28;20463;-75
2021/12/12 15:18:11;;;;;;;11.82;5.72;;;;;;;10.87;100.00;102223.75;10526535;28;20455;-76
2021/12/12 15:23:20;;;;;;;15.10;7.63;;;;;;;10.81;100.00;102218.97;10544571;28;20062;-75
2021/12/12 15:28:20;;;;;;;19.88;8.63;;;;;;;10.79;100.00;102214.78;10544514;28;20417;-76
2021/12/12 15:33:25;;;;;;;12.18;9.20;;;;;;;10.68;100.00;102216.75;10526840;28;20024;-76
2021/12/12 15:38:27;;;;;;;31.38;10.32;;;;;;;10.62;100.00;102227.41;10543788;28;20456;-76
2021/12/12 15:43:32;;;;;;;44.15;10.55;;;;;;;10.60;100.00;102240.28;10544591;28;20471;-76
2021/12/12 15:48:42;;;;;;;16.88;8.82;;;;;;;10.56;100.00;102242.50;10542958;28;20055;-74
2021/12/12 15:53:50;;;;;;;28.13;10.45;;;;;;;10.53;100.00;102236.53;10543975;28;20368;-76
2021/12/12 15:59:04;;;;;;;28.63;9.38;;;;;;;10.50;100.00;102240.44;10542257;28;20036;-75
2021/12/12 16:04:05;;;;;;;22.70;10.18;;;;;;;10.52;100.00;102246.50;10542997;28;20060;-77
2021/12/12 16:09:15;;;;;;;29.48;12.85;;;;;;;10.50;100.00;102243.16;10543130;28;20476;-77
2021/12/12 16:14:18;;;;;;;66.95;20.25;;;;;;;10.46;100.00;102253.47;10543261;28;20365;-76
2021/12/12 16:19:27;;;;;;;66.00;19.33;;;;;;;10.51;100.00;102261.06;10524179;28;20032;-76
2021/12/12 16:24:35;;;;;;;103.13;25.60;;;;;;;10.48;100.00;102269.53;10542922;28;20107;-77
2021/12/12 16:29:36;;;;;;;52.05;16.75;;;;;;;10.45;100.00;102273.41;10541625;28;20411;-77
2021/12/12 16:34:37;;;;;;;31.13;11.20;;;;;;;10.44;100.00;102281.72;10540100;28;20043;-77
2021/12/12 16:39:43;;;;;;;27.27;8.60;;;;;;;10.37;100.00;102281.50;10539342;28;20109;-77
2021/12/12 16:44:50;;;;;;;42.65;9.15;;;;;;;10.31;100.00;102282.16;10539645;28;20020;-77
2021/12/12 16:49:51;;;;;;;62.92;11.93;;;;;;;10.23;100.00;102280.22;10541201;28;20105;-77
2021/12/12 16:54:54;;;;;;;37.03;10.20;;;;;;;10.19;100.00;102280.72;10522545;28;20489;-78
2021/12/12 17:00:40;;;;;;;22.15;9.05;;;;;;;10.21;100.00;102297.63;10542152;28;20115;-78
2021/12/12 17:05:42;;;;;;;25.45;8.40;;;;;;;10.21;100.00;102305.75;10537174;28;20040;-78
2021/12/12 17:11:01;;;;;;;27.30;8.50;;;;;;;10.23;100.00;102310.00;10538570;28;20121;-78
2021/12/12 17:16:03;;;;;;;36.15;11.52;;;;;;;10.25;100.00;102309.84;10523762;28;20035;-77
2021/12/12 17:21:06;;;;;;;33.50;9.85;;;;;;;10.26;100.00;102308.84;10539623;28;20046;-78
2021/12/12 17:26:07;;;;;;;44.85;14.05;;;;;;;10.28;100.00;102320.38;10540879;28;20028;-78
2021/12/12 17:31:11;;;;;;;40.10;14.52;;;;;;;10.30;100.00;102312.94;10542665;28;20024;-78
2021/12/12 17:36:16;;;;;;;43.88;13.57;;;;;;;10.32;100.00;102321.75;10549877;28;20085;-78
2021/12/12 17:41:21;;;;;;;40.58;13.40;;;;;;;10.34;100.00;102319.75;10547472;28;20084;-79
2021/12/12 17:46:24;;;;;;;36.55;10.23;;;;;;;10.30;100.00;102322.91;10537597;28;20028;-78
2021/12/12 17:51:46;;;;;;;23.60;10.38;;;;;;;10.32;100.00;102326.31;10550031;28;20030;-79
2021/12/12 17:57:21;;;;;;;31.60;11.82;;;;;;;10.37;100.00;102334.78;10548745;28;20356;-79
2021/12/12 18:02:25;;;;;;;23.55;7.95;;;;;;;10.41;100.00;102325.38;10547644;28;20039;-78
2021/12/12 18:07:51;;;;;;;20.48;8.55;;;;;;;10.41;100.00;102333.47;10549689;28;20024;-79
2021/12/12 18:12:57;;;;;;;34.88;8.85;;;;;;;10.41;100.00;102333.47;10548727;28;20525;-80
2021/12/12 18:18:34;;;;;;;21.02;7.35;;;;;;;10.47;100.00;102341.81;10547612;28;20036;-78
2021/12/12 18:23:35;;;;;;;36.03;10.85;;;;;;;10.47;100.00;102341.81;10548580;28;20464;-79
2021/12/12 18:28:58;;;;;;;34.63;10.50;;;;;;;10.50;100.00;102346.06;10548186;28;20103;-79
2021/12/12 18:34:00;;;;;;;21.40;9.63;;;;;;;10.52;100.00;102340.47;10548440;28;20553;-79
2021/12/12 18:39:14;;;;;;;34.30;9.93;;;;;;;10.57;100.00;102344.41;10546435;28;20028;-79
2021/12/12 18:44:16;;;;;;;21.33;7.80;;;;;;;10.55;100.00;102350.97;10546184;28;20035;-78
2021/12/12 18:49:17;;;;;;;23.52;8.98;;;;;;;10.53;100.00;102351.16;10545247;28;20055;-80
2021/12/12 18:54:23;;;;;;;32.10;7.60;;;;;;;10.55;100.00;102351.81;10545427;28;20036;-80
2021/12/12 18:59:25;;;;;;;23.40;8.65;;;;;;;10.58;100.00;102353.38;10544204;28;20119;-80
2021/12/12 19:04:28;;;;;;;38.00;7.88;;;;;;;10.61;100.00;102359.31;10545124;28;20028;-80
2021/12/12 19:09:45;;;;;;;29.70;8.77;;;;;;;10.54;100.00;102366.38;10527149;28;20126;-80
2021/12/12 19:14:46;;;;;;;15.25;8.48;;;;;;;10.53;100.00;102370.13;10546579;28;20040;-81
2021/12/12 19:19:49;;;;;;;28.70;9.70;;;;;;;10.54;100.00;102373.66;10543993;28;20032;-80
2021/12/12 19:24:50;;;;;;;30.45;7.90;;;;;;;10.51;100.00;102368.56;10544539;28;20028;-80
2021/12/12 19:29:56;;;;;;;17.45;6.78;;;;;;;10.50;100.00;102374.97;10526804;28;20461;-81
2021/12/12 19:34:59;;;;;;;16.43;8.07;;;;;;;10.48;100.00;102365.16;10547016;28;20383;-80
2021/12/12 19:40:02;;;;;;;14.20;7.90;;;;;;;10.47;100.00;102374.31;10544265;28;20028;-78
2021/12/12 19:45:17;;;;;;;12.63;6.03;;;;;;;10.45;100.00;102381.75;10542834;28;20356;-76
2021/12/12 19:50:23;;;;;;;15.48;8.20;;;;;;;10.42;100.00;102376.63;10543968;28;20028;-76
2021/12/12 19:55:26;;;;;;;13.07;7.80;;;;;;;10.38;100.00;102383.41;10541222;28;20032;-75
2021/12/12 20:00:38;;;;;;;13.05;10.13;;;;;;;10.35;100.00;102386.41;10543098;28;20057;-75
2021/12/12 20:06:12;;;;;;;12.68;9.65;;;;;;;10.35;100.00;102388.28;10545592;28;20112;-73
2021/12/12 20:11:16;;;;;;;14.32;10.98;;;;;;;10.36;100.00;102388.09;10543500;28;20077;-75
2021/12/12 20:16:27;;;;;;;20.95;13.07;;;;;;;10.37;100.00;102392.53;10543652;28;20035;-74
2021/12/12 20:21:42;;;;;;;30.58;13.70;;;;;;;10.37;100.00;102395.25;10541600;28;20032;-74
2021/12/12 20:26:43;;;;;;;21.88;15.88;;;;;;;10.38;100.00;102398.81;10558534;28;20126;-74
2021/12/12 20:31:44;;;;;;;31.42;16.95;;;;;;;10.44;100.00;102396.28;10541085;28;20119;-75
2021/12/12 20:36:46;;;;;;;21.52;16.17;;;;;;;10.42;100.00;102402.88;10540882;28;20361;-75
2021/12/12 20:41:49;;;;;;;36.03;18.88;;;;;;;10.43;100.00;102408.16;10541429;28;20036;-75
2021/12/12 20:47:03;;;;;;;20.60;16.23;;;;;;;10.44;100.00;102407.13;10542421;28;20111;-75
2021/12/12 20:52:09;;;;;;;18.98;13.25;;;;;;;10.41;100.00;102412.03;10543052;28;20053;-75
2021/12/12 20:57:33;;;;;;;28.38;13.93;;;;;;;10.44;100.00;102404.41;10540586;28;20051;-75
2021/12/12 21:02:36;;;;;;;24.50;13.98;;;;;;;10.44;100.00;102412.53;10541283;28;20101;-75
2021/12/12 21:07:37;;;;;;;24.48;16.75;;;;;;;10.37;100.00;102408.78;10540221;28;20383;-75
2021/12/12 21:12:46;;;;;;;23.58;13.65;;;;;;;10.41;100.00;102417.44;10541404;28;20181;-75
2021/12/12 21:17:47;;;;;;;23.52;13.45;;;;;;;10.45;100.00;102416.09;10540820;28;20053;-75
2021/12/12 21:22:52;;;;;;;25.70;12.15;;;;;;;10.46;100.00;102410.53;10539559;28;20036;-76
2021/12/12 21:28:23;;;;;;;22.38;12.25;;;;;;;10.47;100.00;102412.22;10540691;28;20038;-75
2021/12/12 21:34:00;;;;;;;19.65;10.13;;;;;;;10.50;100.00;102408.34;10541528;28;20038;-75
2021/12/12 21:39:18;;;;;;;14.57;9.57;;;;;;;10.48;100.00;102408.50;10526919;28;20151;-75
2021/12/12 21:44:21;;;;;;;13.57;8.30;;;;;;;10.44;100.00;102412.53;10540672;28;20028;-79
2021/12/12 21:49:22;;;;;;;23.02;8.93;;;;;;;10.43;100.00;102410.84;10542305;28;20039;-77
2021/12/12 21:54:22;;;;;;;23.80;6.88;;;;;;;10.43;100.00;102426.22;10543798;28;20111;-77
2021/12/12 21:59:23;;;;;;;10.43;5.75;;;;;;;10.46;100.00;102418.66;10538779;28;20410;-76
2021/12/12 22:04:24;;;;;;;14.38;7.18;;;;;;;10.46;100.00;102436.75;10538703;28;20036;-76
2021/12/12 22:09:32;;;;;;;16.52;8.63;;;;;;;10.45;100.00;102440.47;10520750;28;20075;-76
2021/12/12 22:14:57;;;;;;;13.15;6.90;;;;;;;10.38;100.00;102434.84;10539919;28;20472;-77
2021/12/12 22:20:22;;;;;;;20.42;6.75;;;;;;;10.37;100.00;102438.56;10547334;28;20372;-77
2021/12/12 22:25:26;;;;;;;14.57;6.70;;;;;;;10.38;100.00;102434.84;10537501;28;20069;-76
2021/12/12 22:30:27;;;;;;;9.70;5.13;;;;;;;10.35;100.00;102437.03;10546782;28;20028;-78
2021/12/12 22:35:28;;;;;;;21.25;7.07;;;;;;;10.33;100.00;102456.13;10545447;28;20032;-77
2021/12/12 22:40:37;;;;;;;20.63;5.38;;;;;;;10.27;100.00;102458.59;10546495;28;20040;-78
2021/12/12 22:45:40;;;;;;;8.20;4.28;;;;;;;10.23;100.00;102453.47;10546994;28;20077;-78
2021/12/12 22:50:44;;;;;;;14.52;5.70;;;;;;;10.20;100.00;102452.94;10545022;28;20051;-77
2021/12/12 22:55:46;;;;;;;9.43;5.10;;;;;;;10.18;100.00;102465.81;10546269;28;20066;-78
2021/12/12 23:00:53;;;;;;;13.02;4.38;;;;;;;10.15;100.00;102455.28;10544823;28;20032;-77
2021/12/12 23:06:02;;;;;;;13.65;3.72;;;;;;;10.05;100.00;102462.63;10545267;28;20455;-76
2021/12/12 23:11:04;;;;;;;18.08;5.97;;;;;;;9.97;100.00;102461.56;10545594;28;20097;-78
2021/12/12 23:16:16;;;;;;;9.43;4.53;;;;;;;9.97;100.00;102464.25;10528664;28;20040;-78
2021/12/12 23:21:23;;;;;;;11.52;4.25;;;;;;;9.97;100.00;102456.13;10543949;28;20406;-78
2021/12/12 23:26:27;;;;;;;7.18;2.95;;;;;;;9.96;100.00;102462.56;10544597;28;20070;-78